Time;durP1;ratioP1;P1;durP2;ratioP2;P2;SDS_P1;SDS_P2;PMS_P1;PMS_P2;Temp;Humidity;BMP_temperature;BMP_pressure;BME280_temperature;BME280_humidity;BME280_pressure;Samples;Min_cycle;Max_cycle;Signal;HPM_P1;HPM_P2
2021/12/04 00:01:48;0.00;0.00;0.62;0.00;0.00;0.62;1.83;1.10;;;20.40;25.90;;;;;;2260560;61;20397;-63
2021/12/04 00:04:36;0.00;0.00;0.62;0.00;0.00;0.62;1.70;1.00;;;20.40;25.90;;;;;;2261900;61;20722;-63
2021/12/04 00:07:22;0.00;0.00;0.62;0.00;0.00;0.62;1.43;0.80;;;20.40;25.90;;;;;;2261474;61;20781;-63
2021/12/04 00:10:13;0.00;0.00;0.62;0.00;0.00;0.62;1.40;0.70;;;20.40;25.90;;;;;;2260671;61;20712;-63
2021/12/04 00:12:57;0.00;0.00;0.62;0.00;0.00;0.62;1.50;0.90;;;20.40;25.90;;;;;;2261755;61;20431;-63
2021/12/04 00:15:42;0.00;0.00;0.62;0.00;0.00;0.62;1.20;0.80;;;20.40;25.90;;;;;;2261568;61;20412;-64
2021/12/04 00:18:26;0.00;0.00;0.62;0.00;0.00;0.62;1.70;1.10;;;20.40;25.90;;;;;;2261350;61;20404;-63
2021/12/04 00:21:11;0.00;0.00;0.62;0.00;0.00;0.62;1.63;0.70;;;20.40;25.90;;;;;;2261526;61;20390;-63
2021/12/04 00:23:56;0.00;0.00;0.62;0.00;0.00;0.62;2.03;0.97;;;20.40;25.90;;;;;;2261201;61;20357;-63
2021/12/04 00:26:42;0.00;0.00;0.62;0.00;0.00;0.62;1.30;0.70;;;20.40;25.90;;;;;;2261986;61;20412;-63
2021/12/04 00:29:27;0.00;0.00;0.62;0.00;0.00;0.62;1.20;0.70;;;20.40;25.90;;;;;;2261607;61;20409;-64
2021/12/04 00:32:15;0.00;0.00;0.62;0.00;0.00;0.62;1.73;0.80;;;20.40;25.90;;;;;;2261160;61;20384;-62
2021/12/04 00:35:09;0.00;0.00;0.62;0.00;0.00;0.62;1.30;0.80;;;20.40;25.90;;;;;;2262199;61;20416;-61
2021/12/04 00:49:54;0.00;0.00;0.62;0.00;0.00;0.62;1.30;0.70;;;20.30;25.90;;;;;;2261870;61;20378;-62
2021/12/04 00:52:40;0.00;0.00;0.62;0.00;0.00;0.62;1.43;0.80;;;20.40;26.00;;;;;;2261694;61;20695;-62
2021/12/04 00:55:25;0.00;0.00;0.62;0.00;0.00;0.62;1.37;0.73;;;20.40;26.00;;;;;;2260982;61;20362;-63
2021/12/04 00:58:10;0.00;0.00;0.62;0.00;0.00;0.62;1.40;0.70;;;20.40;26.00;;;;;;2266993;58;20361;-62
2021/12/04 01:00:56;0.00;0.00;0.62;0.00;0.00;0.62;1.37;0.80;;;20.40;26.00;;;;;;2262050;61;20595;-62
2021/12/04 01:03:41;0.00;0.00;0.62;0.00;0.00;0.62;1.20;0.70;;;20.40;26.00;;;;;;2266185;61;20721;-62
2021/12/04 01:06:26;0.00;0.00;0.62;0.00;0.00;0.62;1.30;0.70;;;20.40;26.00;;;;;;2265601;61;20360;-62
2021/12/04 01:09:14;0.00;0.00;0.62;0.00;0.00;0.62;1.50;0.90;;;20.30;26.50;;;;;;2264925;61;20387;-63
2021/12/04 01:11:59;0.00;0.00;0.62;0.00;0.00;0.62;1.20;0.70;;;20.30;26.00;;;;;;2265936;61;20365;-63
2021/12/04 01:14:44;0.00;0.00;0.62;0.00;0.00;0.62;1.33;0.90;;;20.40;26.00;;;;;;2262669;61;20353;-62
2021/12/04 01:17:30;0.00;0.00;0.62;0.00;0.00;0.62;1.30;0.73;;;20.30;26.00;;;;;;2262117;61;20412;-62
2021/12/04 01:20:15;0.00;0.00;0.62;0.00;0.00;0.62;1.30;0.70;;;20.40;26.00;;;;;;2265328;61;20606;-62
2021/12/04 01:22:59;0.00;0.00;0.62;0.00;0.00;0.62;1.40;0.80;;;20.40;26.00;;;;;;2265673;61;20357;-62
2021/12/04 01:25:45;0.00;0.00;0.62;0.00;0.00;0.62;1.30;0.80;;;20.40;26.00;;;;;;2265616;61;20704;-62
2021/12/04 01:28:30;0.00;0.00;0.62;0.00;0.00;0.62;1.50;0.70;;;20.40;26.00;;;;;;2265474;61;20388;-62
2021/12/04 01:31:14;0.00;0.00;0.62;0.00;0.00;0.62;1.40;0.70;;;20.40;26.00;;;;;;2265051;61;20396;-63
2021/12/04 01:34:00;0.00;0.00;0.62;0.00;0.00;0.62;1.53;0.80;;;20.40;26.00;;;;;;2264979;61;20416;-71
2021/12/04 01:36:45;0.00;0.00;0.62;0.00;0.00;0.62;1.40;0.80;;;20.30;26.00;;;;;;2265368;61;20365;-60
2021/12/04 01:39:29;0.00;0.00;0.62;0.00;0.00;0.62;1.20;0.67;;;20.40;26.10;;;;;;2264422;61;20496;-63
2021/12/04 01:42:17;0.00;0.00;0.62;0.00;0.00;0.62;1.40;0.70;;;20.40;26.20;;;;;;2262326;61;20647;-62
2021/12/04 01:45:05;0.00;0.00;0.62;0.00;0.00;0.62;1.33;0.83;;;20.40;26.10;;;;;;2265575;61;20479;-63
2021/12/04 01:47:56;0.00;0.00;0.62;0.00;0.00;0.62;1.33;0.77;;;20.40;26.10;;;;;;2265436;61;20584;-63
2021/12/04 01:50:42;0.00;0.00;0.62;0.00;0.00;0.62;1.40;0.80;;;20.40;26.10;;;;;;2265810;61;20376;-63
2021/12/04 01:53:27;0.00;0.00;0.62;0.00;0.00;0.62;2.17;0.90;;;20.40;26.10;;;;;;2264826;61;20606;-64
2021/12/04 01:56:12;0.00;0.00;0.62;0.00;0.00;0.62;1.20;0.70;;;20.40;26.10;;;;;;2266571;61;20571;-62
2021/12/04 01:58:57;0.00;0.00;0.62;0.00;0.00;0.62;1.20;0.70;;;20.40;26.10;;;;;;2267534;61;20361;-63
2021/12/04 02:01:42;0.00;0.00;0.62;0.00;0.00;0.62;1.40;0.80;;;20.40;26.10;;;;;;2265625;61;20357;-62
2021/12/04 02:04:26;0.00;0.00;0.62;0.00;0.00;0.62;1.60;0.80;;;20.40;26.00;;;;;;2267235;61;20354;-64
2021/12/04 02:07:15;0.00;0.00;0.62;0.00;0.00;0.62;1.40;0.80;;;20.40;26.00;;;;;;2266369;61;20353;-64
2021/12/04 02:09:59;0.00;0.00;0.62;0.00;0.00;0.62;1.30;0.70;;;20.40;26.00;;;;;;2266241;61;20389;-65
2021/12/04 02:12:44;0.00;0.00;0.62;0.00;0.00;0.62;1.80;0.90;;;20.40;26.00;;;;;;2263644;61;20772;-61
2021/12/04 02:15:29;0.00;0.00;0.62;0.00;0.00;0.62;2.93;1.73;;;20.40;26.00;;;;;;2265295;61;20806;-61
2021/12/04 02:18:17;0.00;0.00;0.62;0.00;0.00;0.62;2.00;1.80;;;20.40;25.80;;;;;;2266413;61;20400;-61
2021/12/04 02:21:03;0.00;0.00;0.62;0.00;0.00;0.62;2.40;1.90;;;20.40;25.70;;;;;;2266541;61;20646;-61
2021/12/04 02:23:48;0.00;0.00;0.62;0.00;0.00;0.62;7.73;2.20;;;20.30;25.40;;;;;;2265249;61;20354;-61
2021/12/04 02:26:32;0.00;0.00;0.62;0.00;0.00;0.62;1.83;1.60;;;20.30;25.40;;;;;;2266437;61;20709;-61
2021/12/04 02:29:18;0.00;0.00;0.62;0.00;0.00;0.62;2.33;1.70;;;20.20;25.30;;;;;;2266002;61;20353;-63
2021/12/04 02:32:03;0.00;0.00;0.62;0.00;0.00;0.62;5.53;2.50;;;20.20;25.20;;;;;;2262748;61;20369;-60
2021/12/04 02:34:48;0.00;0.00;0.62;0.00;0.00;0.62;2.10;1.90;;;20.20;25.10;;;;;;2266533;61;20348;-60
2021/12/04 02:37:34;0.00;0.00;0.62;0.00;0.00;0.62;2.60;2.13;;;20.10;24.90;;;;;;2265216;61;20353;-61
2021/12/04 02:40:23;0.00;0.00;0.62;0.00;0.00;0.62;4.50;2.10;;;20.00;24.90;;;;;;2266291;61;20741;-62
2021/12/04 02:43:07;0.00;0.00;0.62;0.00;0.00;0.62;2.60;2.27;;;20.00;24.80;;;;;;2266377;61;20345;-61
2021/12/04 02:45:52;0.00;0.00;0.62;0.00;0.00;0.62;2.43;2.23;;;19.90;24.70;;;;;;2265117;61;20392;-61
2021/12/04 02:48:37;0.00;0.00;0.62;0.00;0.00;0.62;3.90;2.17;;;19.80;24.70;;;;;;2266175;61;20408;-61
2021/12/04 02:51:21;0.00;0.00;0.62;0.00;0.00;0.62;2.47;2.27;;;19.70;24.50;;;;;;2265842;61;20489;-61
2021/12/04 02:54:11;0.00;0.00;0.62;0.00;0.00;0.62;2.97;2.70;;;19.70;24.60;;;;;;2265631;61;20389;-62
2021/12/04 02:56:55;0.00;0.00;0.62;0.00;0.00;0.62;3.10;2.33;;;19.60;24.60;;;;;;2266301;61;20500;-61
2021/12/04 02:59:41;0.00;0.00;0.62;0.00;0.00;0.62;2.73;2.43;;;19.60;24.70;;;;;;2261800;61;20408;-61
2021/12/04 03:02:26;0.00;0.00;0.62;0.00;0.00;0.62;3.33;2.73;;;19.50;24.70;;;;;;2266379;61;20353;-62
2021/12/04 03:05:11;0.00;0.00;0.62;0.00;0.00;0.62;3.47;2.60;;;19.50;24.70;;;;;;2266144;61;20712;-61
2021/12/04 03:07:58;0.00;0.00;0.62;0.00;0.00;0.62;2.20;2.00;;;19.40;24.70;;;;;;2265033;61;20357;-61
2021/12/04 03:10:46;0.00;0.00;0.62;0.00;0.00;0.62;2.93;2.57;;;19.40;24.70;;;;;;2266059;61;20443;-61
2021/12/04 03:13:31;0.00;0.00;0.62;0.00;0.00;0.62;4.27;2.60;;;19.30;24.70;;;;;;2265905;61;20383;-61
2021/12/04 03:16:16;0.00;0.00;0.62;0.00;0.00;0.62;3.20;2.57;;;19.30;24.70;;;;;;2265533;61;20393;-61
2021/12/04 03:19:01;0.00;0.00;0.62;0.00;0.00;0.62;3.83;2.83;;;19.20;24.70;;;;;;2266068;61;20425;-61
2021/12/04 03:21:46;0.00;0.00;0.62;0.00;0.00;0.62;5.03;2.30;;;19.20;24.70;;;;;;2265263;61;20364;-61
2021/12/04 03:24:32;0.00;0.00;0.62;0.00;0.00;0.62;2.43;2.17;;;19.10;24.70;;;;;;2266191;61;20577;-62
2021/12/04 03:27:19;0.00;0.00;0.62;0.00;0.00;0.62;2.57;2.03;;;19.10;24.80;;;;;;2266138;61;20422;-61
2021/12/04 03:30:11;0.00;0.00;0.62;0.00;0.00;0.62;2.80;2.53;;;19.10;24.80;;;;;;2264972;61;20472;-61
2021/12/04 03:41:50;0.00;0.00;0.62;0.00;0.00;0.62;3.63;2.90;;;19.00;24.80;;;;;;2266165;61;20372;-61
2021/12/04 03:44:37;0.00;0.00;0.62;0.00;0.00;0.62;3.10;2.67;;;19.00;24.80;;;;;;2265016;61;20407;-61
2021/12/04 03:47:23;0.00;0.00;0.62;0.00;0.00;0.62;3.30;2.37;;;18.90;25.40;;;;;;2266303;61;20586;-61
2021/12/04 03:50:09;0.00;0.00;0.62;0.00;0.00;0.62;4.33;2.67;;;18.90;24.90;;;;;;2266037;61;20400;-61
2021/12/04 03:52:53;0.00;0.00;0.62;0.00;0.00;0.62;2.77;2.27;;;18.80;24.80;;;;;;2265275;61;20584;-62
2021/12/04 03:55:39;0.00;0.00;0.62;0.00;0.00;0.62;2.97;2.60;;;18.90;24.90;;;;;;2266110;61;20360;-62
2021/12/04 03:58:24;0.00;0.00;0.62;0.00;0.00;0.62;2.30;1.97;;;18.80;24.80;;;;;;2265707;61;20783;-61
2021/12/04 04:01:10;0.00;0.00;0.62;0.00;0.00;0.62;4.50;2.80;;;18.80;24.80;;;;;;2265784;61;20381;-62
2021/12/04 04:03:55;0.00;0.00;0.62;0.00;0.00;0.62;2.43;2.00;;;18.80;24.90;;;;;;2266134;61;20724;-61
2021/12/04 04:06:39;0.00;0.00;0.62;0.00;0.00;0.62;2.87;2.20;;;18.80;24.90;;;;;;2265056;61;20429;-61
2021/12/04 04:09:24;0.00;0.00;0.62;0.00;0.00;0.62;2.50;2.20;;;18.80;24.90;;;;;;2265957;61;20357;-62
2021/12/04 04:12:09;0.00;0.00;0.62;0.00;0.00;0.62;3.00;2.20;;;18.80;24.90;;;;;;2266114;61;20369;-62
2021/12/04 04:14:53;0.00;0.00;0.62;0.00;0.00;0.62;2.63;1.97;;;18.70;24.90;;;;;;2264905;61;20361;-62
2021/12/04 04:17:43;0.00;0.00;0.62;0.00;0.00;0.62;2.67;1.83;;;18.70;24.90;;;;;;2265900;61;20477;-61
2021/12/04 04:20:28;0.00;0.00;0.62;0.00;0.00;0.62;2.47;1.90;;;18.70;25.00;;;;;;2265714;61;20381;-62
2021/12/04 04:23:13;0.00;0.00;0.62;0.00;0.00;0.62;2.30;1.80;;;18.70;25.00;;;;;;2265732;61;20411;-61
2021/12/04 04:25:57;0.00;0.00;0.62;0.00;0.00;0.62;2.50;2.30;;;18.70;25.00;;;;;;2266000;61;20759;-62
2021/12/04 04:28:42;0.00;0.00;0.62;0.00;0.00;0.62;2.27;1.90;;;18.70;25.00;;;;;;2264747;61;20353;-62
2021/12/04 04:31:28;0.00;0.00;0.62;0.00;0.00;0.62;2.27;1.97;;;18.70;25.00;;;;;;2265925;61;20454;-62
2021/12/04 04:34:27;0.00;0.00;0.62;0.00;0.00;0.62;3.00;2.33;;;18.70;25.00;;;;;;2266077;61;20439;-62
2021/12/04 05:11:03;0.00;0.00;0.62;0.00;0.00;0.62;2.10;1.80;;;18.60;25.10;;;;;;2265768;61;20407;-61
2021/12/04 05:13:46;0.00;0.00;0.62;0.00;0.00;0.62;2.20;2.00;;;18.50;25.10;;;;;;2264882;61;20384;-61
2021/12/04 05:16:41;0.00;0.00;0.62;0.00;0.00;0.62;2.13;1.80;;;18.50;25.10;;;;;;2265942;61;20400;-60
2021/12/04 05:19:28;0.00;0.00;0.62;0.00;0.00;0.62;2.03;1.83;;;18.60;25.70;;;;;;2265346;61;20720;-61
2021/12/04 05:22:15;0.00;0.00;0.62;0.00;0.00;0.62;2.60;2.03;;;18.60;25.20;;;;;;2259503;61;20393;-61
2021/12/04 05:25:00;0.00;0.00;0.62;0.00;0.00;0.62;2.10;1.60;;;18.60;25.20;;;;;;2265855;61;20354;-61
2021/12/04 05:27:44;0.00;0.00;0.62;0.00;0.00;0.62;3.53;2.10;;;18.60;25.20;;;;;;2261788;61;20353;-64
2021/12/04 05:30:29;0.00;0.00;0.62;0.00;0.00;0.62;2.03;1.83;;;18.60;25.20;;;;;;2266697;61;20399;-61
2021/12/04 05:33:14;0.00;0.00;0.62;0.00;0.00;0.62;2.13;1.57;;;18.60;25.20;;;;;;2266632;61;20420;-62
2021/12/04 05:35:59;0.00;0.00;0.62;0.00;0.00;0.62;5.30;2.00;;;18.60;25.20;;;;;;2262272;61;20380;-62
2021/12/04 05:38:44;0.00;0.00;0.62;0.00;0.00;0.62;2.27;1.47;;;18.60;25.20;;;;;;2266429;61;20360;-62
2021/12/04 05:41:29;0.00;0.00;0.62;0.00;0.00;0.62;2.40;1.83;;;18.70;25.20;;;;;;2266173;61;20392;-62
2021/12/04 05:44:16;0.00;0.00;0.62;0.00;0.00;0.62;2.83;1.90;;;18.70;25.20;;;;;;2265714;61;20361;-61
2021/12/04 05:47:08;0.00;0.00;0.62;0.00;0.00;0.62;2.27;1.87;;;18.60;25.10;;;;;;2266482;61;20763;-62
2021/12/04 05:53:19;0.00;0.00;0.62;0.00;0.00;0.62;4.37;1.97;;;18.60;25.00;;;;;;2266480;61;20377;-61
2021/12/04 05:56:02;0.00;0.00;0.62;0.00;0.00;0.62;2.57;2.37;;;18.60;25.00;;;;;;2266593;61;20468;-62
2021/12/04 05:58:48;0.00;0.00;0.62;0.00;0.00;0.62;2.33;1.87;;;18.60;25.50;;;;;;2265528;61;20360;-62
2021/12/04 06:01:33;0.00;0.00;0.62;0.00;0.00;0.62;2.07;1.87;;;18.60;25.00;;;;;;2266389;61;20385;-61
2021/12/04 06:04:17;0.00;0.00;0.62;0.00;0.00;0.62;2.00;1.80;;;18.50;25.00;;;;;;2265740;61;20394;-61
2021/12/04 06:07:04;0.00;0.00;0.62;0.00;0.00;0.62;2.53;2.00;;;18.60;25.10;;;;;;2263139;61;20361;-61
2021/12/04 06:09:48;0.00;0.00;0.62;0.00;0.00;0.62;2.37;2.03;;;18.50;25.00;;;;;;2263141;61;20408;-62
2021/12/04 06:12:34;0.00;0.00;0.62;0.00;0.00;0.62;2.13;1.93;;;18.50;25.10;;;;;;2265308;61;20364;-61
2021/12/04 06:15:19;0.00;0.00;0.62;0.00;0.00;0.62;2.10;1.77;;;18.60;25.20;;;;;;2266382;61;20361;-61
2021/12/04 06:18:04;0.00;0.00;0.62;0.00;0.00;0.62;2.07;1.80;;;18.60;25.20;;;;;;2266331;61;20437;-61
2021/12/04 06:23:53;0.00;0.00;0.62;0.00;0.00;0.62;2.10;1.80;;;18.50;25.10;;;;;;2266409;61;20357;-61
2021/12/04 06:26:37;0.00;0.00;0.62;0.00;0.00;0.62;2.80;2.03;;;18.50;25.10;;;;;;2265512;61;20372;-61
2021/12/04 06:29:24;0.00;0.00;0.62;0.00;0.00;0.62;2.07;1.70;;;18.50;25.10;;;;;;2266270;61;20361;-62
2021/12/04 06:32:08;0.00;0.00;0.62;0.00;0.00;0.62;1.93;1.73;;;18.50;25.60;;;;;;2266312;61;20807;-62
2021/12/04 06:34:53;0.00;0.00;0.62;0.00;0.00;0.62;2.17;1.60;;;18.50;25.10;;;;;;2265253;61;20733;-62
2021/12/04 06:37:38;0.00;0.00;0.62;0.00;0.00;0.62;3.97;2.30;;;18.50;25.10;;;;;;2266313;61;20396;-61
2021/12/04 06:40:26;0.00;0.00;0.62;0.00;0.00;0.62;3.13;2.17;;;18.50;25.20;;;;;;2262906;61;20384;-62
2021/12/04 06:43:11;0.00;0.00;0.62;0.00;0.00;0.62;2.40;2.00;;;18.50;25.20;;;;;;2265527;61;20431;-63
2021/12/04 06:45:59;0.00;0.00;0.62;0.00;0.00;0.62;3.90;1.80;;;18.50;25.20;;;;;;2266327;61;20396;-62
2021/12/04 06:49:01;0.00;0.00;0.62;0.00;0.00;0.62;2.80;1.70;;;18.50;25.20;;;;;;2265378;61;20424;-61
2021/12/04 06:51:50;0.00;0.00;0.62;0.00;0.00;0.62;1.77;1.63;;;18.50;25.20;;;;;;2266338;61;20403;-61
2021/12/04 06:54:38;0.00;0.00;0.62;0.00;0.00;0.62;2.43;1.80;;;18.50;25.20;;;;;;2263150;61;20381;-62
2021/12/04 06:57:23;0.00;0.00;0.62;0.00;0.00;0.62;2.40;1.90;;;18.50;25.20;;;;;;2265208;61;20358;-61
2021/12/04 07:00:11;0.00;0.00;0.62;0.00;0.00;0.62;1.90;1.50;;;18.50;25.20;;;;;;2266193;61;20424;-61
2021/12/04 07:02:57;0.00;0.00;0.62;0.00;0.00;0.62;2.20;1.80;;;18.50;25.20;;;;;;2265963;61;20586;-61
2021/12/04 07:05:41;0.00;0.00;0.62;0.00;0.00;0.62;2.50;1.73;;;18.60;25.40;;;;;;2265750;61;20578;-62
2021/12/04 07:08:26;0.00;0.00;0.62;0.00;0.00;0.62;3.10;2.27;;;18.60;25.30;;;;;;2266297;61;20601;-62
2021/12/04 07:11:10;0.00;0.00;0.62;0.00;0.00;0.62;2.20;1.87;;;18.50;25.20;;;;;;2265414;61;20416;-63
2021/12/04 07:13:55;0.00;0.00;0.62;0.00;0.00;0.62;2.77;2.00;;;18.60;25.30;;;;;;2266394;61;20373;-61
2021/12/04 07:16:40;0.00;0.00;0.62;0.00;0.00;0.62;2.67;2.20;;;18.50;25.20;;;;;;2266322;61;20641;-63
2021/12/04 07:19:26;0.00;0.00;0.62;0.00;0.00;0.62;2.33;1.80;;;18.50;25.20;;;;;;2265128;61;20573;-62
2021/12/04 07:22:11;0.00;0.00;0.62;0.00;0.00;0.62;2.33;2.13;;;18.50;25.20;;;;;;2266204;61;20709;-62
2021/12/04 07:24:57;0.00;0.00;0.62;0.00;0.00;0.62;2.40;1.67;;;18.50;25.20;;;;;;2266238;61;20361;-63
2021/12/04 07:27:42;0.00;0.00;0.62;0.00;0.00;0.62;2.30;1.93;;;18.50;25.20;;;;;;2265472;61;20353;-62
2021/12/04 07:30:26;0.00;0.00;0.62;0.00;0.00;0.62;1.83;1.63;;;18.50;25.20;;;;;;2266009;61;20385;-61
2021/12/04 07:33:11;0.00;0.00;0.62;0.00;0.00;0.62;2.23;1.73;;;18.50;25.30;;;;;;2265326;61;20380;-60
2021/12/04 07:35:59;0.00;0.00;0.62;0.00;0.00;0.62;2.30;1.80;;;18.50;25.30;;;;;;2266245;61;20410;-63
2021/12/04 07:38:44;0.00;0.00;0.62;0.00;0.00;0.62;2.77;2.47;;;18.50;25.30;;;;;;2266012;61;20358;-62
2021/12/04 07:41:28;0.00;0.00;0.62;0.00;0.00;0.62;2.93;2.60;;;18.50;25.20;;;;;;2264961;61;20411;-61
2021/12/04 07:44:13;0.00;0.00;0.62;0.00;0.00;0.62;3.30;2.90;;;18.50;25.10;;;;;;2266106;61;20384;-61
2021/12/04 07:46:58;0.00;0.00;0.62;0.00;0.00;0.62;3.57;3.00;;;18.40;25.10;;;;;;2265427;61;20451;-62
2021/12/04 07:49:43;0.00;0.00;0.62;0.00;0.00;0.62;3.57;2.53;;;18.40;25.10;;;;;;2264184;61;20756;-61
2021/12/04 07:52:29;0.00;0.00;0.62;0.00;0.00;0.62;3.83;3.00;;;18.40;25.10;;;;;;2265409;61;20419;-62
2021/12/04 07:55:13;0.00;0.00;0.62;0.00;0.00;0.62;3.90;2.80;;;18.30;25.00;;;;;;2265173;61;20353;-63
2021/12/04 07:57:59;0.00;0.00;0.62;0.00;0.00;0.62;3.43;2.93;;;18.30;25.10;;;;;;2265723;61;20412;-62
2021/12/04 08:00:44;0.00;0.00;0.62;0.00;0.00;0.62;3.90;3.43;;;18.20;25.20;;;;;;2264214;61;20384;-64
2021/12/04 08:03:29;0.00;0.00;0.62;0.00;0.00;0.62;3.87;3.40;;;18.20;25.30;;;;;;2261614;61;20360;-63
2021/12/04 08:06:14;0.00;0.00;0.62;0.00;0.00;0.62;3.43;2.97;;;18.10;25.30;;;;;;2265142;61;20680;-63
2021/12/04 08:09:00;0.00;0.00;0.62;0.00;0.00;0.62;4.03;3.30;;;18.10;25.30;;;;;;2497598;53;20638;-61
2021/12/04 08:11:46;0.00;0.00;0.62;0.00;0.00;0.62;3.43;2.77;;;18.10;25.30;;;;;;2261423;61;20456;-63
2021/12/04 08:14:30;0.00;0.00;0.62;0.00;0.00;0.62;4.93;3.30;;;18.00;25.20;;;;;;2262358;61;20637;-63
2021/12/04 08:17:15;0.00;0.00;0.62;0.00;0.00;0.62;4.47;3.37;;;18.00;25.20;;;;;;2261471;61;20573;-61
2021/12/04 08:20:00;0.00;0.00;0.62;0.00;0.00;0.62;3.83;3.43;;;18.00;25.20;;;;;;2264556;61;20393;-64
2021/12/04 08:22:45;0.00;0.00;0.62;0.00;0.00;0.62;3.60;2.90;;;18.00;25.20;;;;;;2265826;61;20407;-64
2021/12/04 08:25:32;0.00;0.00;0.62;0.00;0.00;0.62;3.87;3.50;;;17.90;25.20;;;;;;2265128;61;20728;-62
2021/12/04 08:28:18;0.00;0.00;0.62;0.00;0.00;0.62;3.70;3.17;;;17.90;25.30;;;;;;2265846;61;20584;-62
2021/12/04 08:31:03;0.00;0.00;0.62;0.00;0.00;0.62;3.93;3.40;;;17.90;25.30;;;;;;2265428;61;20412;-63
2021/12/04 08:33:47;0.00;0.00;0.62;0.00;0.00;0.62;4.23;3.60;;;17.90;25.90;;;;;;2265052;61;20405;-63
2021/12/04 08:36:32;0.00;0.00;0.62;0.00;0.00;0.62;3.70;3.40;;;17.90;25.20;;;;;;2502805;53;20437;-63
2021/12/04 08:39:18;0.00;0.00;0.62;0.00;0.00;0.62;4.60;3.80;;;17.80;25.20;;;;;;2264835;61;20356;-62
2021/12/04 08:42:05;0.00;0.00;0.62;0.00;0.00;0.62;3.87;3.47;;;17.80;25.10;;;;;;2265500;61;20361;-62
2021/12/04 08:44:49;0.00;0.00;0.62;0.00;0.00;0.62;4.13;3.43;;;17.80;25.30;;;;;;2265217;61;20453;-62
2021/12/04 08:47:34;0.00;0.00;0.62;0.00;0.00;0.62;4.87;3.77;;;17.70;25.30;;;;;;2264489;61;20661;-62
2021/12/04 08:50:22;0.00;0.00;0.62;0.00;0.00;0.62;3.20;2.77;;;17.70;25.40;;;;;;2265847;61;20408;-60
2021/12/04 08:53:08;0.00;0.00;0.62;0.00;0.00;0.62;3.90;3.40;;;17.70;25.40;;;;;;2262460;61;20373;-62
2021/12/04 08:55:54;0.00;0.00;0.62;0.00;0.00;0.62;4.70;3.53;;;17.70;25.50;;;;;;2265474;61;20349;-60
2021/12/04 08:58:40;0.00;0.00;0.62;0.00;0.00;0.62;3.43;3.07;;;17.70;25.60;;;;;;2266003;61;20365;-63
2021/12/04 09:01:31;0.00;0.00;0.62;0.00;0.00;0.62;4.13;3.60;;;17.60;25.50;;;;;;2265391;61;20732;-62
2021/12/04 09:04:20;0.00;0.00;0.62;0.00;0.00;0.62;4.13;3.70;;;17.60;25.70;;;;;;2263317;61;20358;-62
2021/12/04 09:07:06;0.00;0.00;0.62;0.00;0.00;0.62;4.07;3.47;;;17.60;25.70;;;;;;2265359;61;20388;-73
2021/12/04 09:09:55;0.00;0.00;0.62;0.00;0.00;0.62;4.63;3.43;;;17.60;25.70;;;;;;2263082;61;20431;-65
2021/12/04 09:12:40;0.00;0.00;0.62;0.00;0.00;0.62;5.40;3.80;;;17.60;25.80;;;;;;2265761;61;20360;-69
2021/12/04 09:15:31;0.00;0.00;0.62;0.00;0.00;0.62;3.83;3.43;;;17.60;25.80;;;;;;2265108;61;20412;-61
2021/12/04 09:18:16;0.00;0.00;0.62;0.00;0.00;0.62;4.20;3.23;;;17.60;25.80;;;;;;2265241;61;20576;-63
2021/12/04 09:21:01;0.00;0.00;0.62;0.00;0.00;0.62;4.47;4.07;;;17.60;25.80;;;;;;2265749;61;20659;-61
2021/12/04 09:23:54;0.00;0.00;0.62;0.00;0.00;0.62;5.60;3.87;;;17.60;25.80;;;;;;2265109;61;20429;-63
2021/12/04 09:29:51;0.00;0.00;0.62;0.00;0.00;0.62;3.97;3.40;;;17.60;25.80;;;;;;2264852;61;20381;-61
2021/12/04 10:00:38;0.00;0.00;0.62;0.00;0.00;0.62;2.53;2.00;;;17.80;26.80;;;;;;2261353;61;20628;-61
2021/12/04 10:12:38;0.00;0.00;0.62;0.00;0.00;0.62;2.03;1.50;;;18.00;26.40;;;;;;2265926;61;20361;-64
2021/12/04 10:33:21;0.00;0.00;0.62;0.00;0.00;0.62;2.10;1.50;;;18.40;26.40;;;;;;2264278;61;20488;-63
2021/12/04 10:36:07;0.00;0.00;0.62;0.00;0.00;0.62;7.20;1.70;;;18.40;26.30;;;;;;2265569;61;20408;-62
2021/12/04 10:38:52;0.00;0.00;0.62;0.00;0.00;0.62;2.00;1.23;;;18.50;26.30;;;;;;2265249;61;20364;-61
2021/12/04 10:41:44;0.00;0.00;0.62;0.00;0.00;0.62;2.13;1.43;;;18.50;26.30;;;;;;2266295;61;20353;-65
2021/12/04 10:44:29;0.00;0.00;0.62;0.00;0.00;0.62;1.60;1.00;;;18.50;26.20;;;;;;2265585;61;20369;-63
2021/12/04 10:47:21;0.00;0.00;0.62;0.00;0.00;0.62;3.13;1.70;;;18.60;26.30;;;;;;2265415;61;20388;-64
2021/12/04 10:53:01;0.00;0.00;0.62;0.00;0.00;0.62;1.87;1.20;;;18.60;26.20;;;;;;2265484;61;20353;-63
2021/12/04 11:23:53;0.00;0.00;0.62;0.00;0.00;0.62;2.20;1.20;;;18.90;26.00;;;;;;2265456;61;20368;-61
2021/12/04 11:26:20;0.00;0.00;0.62;0.00;0.00;0.62;3.33;1.30;;;18.90;25.90;;;;;;2265004;61;20388;-62
2021/12/04 11:36:06;0.00;0.00;0.62;0.00;0.00;0.62;1.50;1.10;;;19.00;25.90;;;;;;2265456;61;20573;-64
2021/12/04 11:38:41;0.00;0.00;0.62;0.00;0.00;0.62;1.67;1.10;;;19.00;25.90;;;;;;2265020;61;20404;-63
2021/12/04 11:44:45;0.00;0.00;0.62;0.00;0.00;0.62;1.97;1.30;;;19.00;25.90;;;;;;2266009;61;20365;-60
2021/12/04 11:47:37;0.00;0.00;0.62;0.00;0.00;0.62;1.50;1.10;;;19.00;25.90;;;;;;2266155;61;20361;-62
2021/12/04 11:50:26;0.00;0.00;0.62;0.00;0.00;0.62;1.50;1.17;;;19.10;26.00;;;;;;2265557;61;20377;-61
2021/12/04 11:53:16;0.00;0.00;0.62;0.00;0.00;0.62;1.67;1.23;;;19.10;26.00;;;;;;2265380;61;20356;-63
2021/12/04 11:56:02;0.00;0.00;0.62;0.00;0.00;0.62;1.50;1.10;;;19.10;26.00;;;;;;2266172;61;20419;-61
2021/12/04 11:58:50;0.00;0.00;0.62;0.00;0.00;0.62;1.87;1.27;;;19.10;26.00;;;;;;2265237;61;20389;-64
2021/12/04 12:01:38;0.00;0.00;0.62;0.00;0.00;0.62;1.70;1.10;;;19.20;26.00;;;;;;2265310;61;20680;-63
2021/12/04 12:04:44;;;;;;;;;;;;;;;;;;;;;
2021/12/04 12:07:31;0.00;0.00;0.62;0.00;0.00;0.62;2.13;1.20;;;19.20;26.00;;;;;;2264918;61;20361;-64
2021/12/04 12:10:15;0.00;0.00;0.62;0.00;0.00;0.62;1.50;1.03;;;19.20;26.00;;;;;;2265921;61;20412;-62
2021/12/04 12:13:07;0.00;0.00;0.62;0.00;0.00;0.62;1.40;0.90;;;19.20;26.00;;;;;;2265281;61;20357;-64
2021/12/04 12:16:02;0.00;0.00;0.62;0.00;0.00;0.62;1.73;1.30;;;19.20;25.90;;;;;;2265110;61;20396;-63
2021/12/04 12:18:55;0.00;0.00;0.62;0.00;0.00;0.62;1.87;1.13;;;19.20;26.10;;;;;;2265785;61;20573;-63
2021/12/04 12:21:45;0.00;0.00;0.62;0.00;0.00;0.62;1.40;1.00;;;19.30;26.00;;;;;;2265294;61;20411;-64
2021/12/04 12:27:54;0.00;0.00;0.62;0.00;0.00;0.62;1.60;1.10;;;19.30;25.90;;;;;;2265092;61;20353;-65
2021/12/04 12:34:01;0.00;0.00;0.62;0.00;0.00;0.62;1.80;1.20;;;19.30;25.90;;;;;;2265531;61;20404;-61
2021/12/04 12:36:46;0.00;0.00;0.62;0.00;0.00;0.62;3.40;1.00;;;19.30;25.90;;;;;;2265043;61;20461;-62
2021/12/04 12:39:30;0.00;0.00;0.62;0.00;0.00;0.62;1.70;1.17;;;19.30;25.90;;;;;;2262493;61;20595;-62
2021/12/04 12:42:24;0.00;0.00;0.62;0.00;0.00;0.62;1.60;1.03;;;19.30;25.80;;;;;;2265190;61;20365;-63
2021/12/04 12:45:19;0.00;0.00;0.62;0.00;0.00;0.62;1.57;1.00;;;19.40;25.90;;;;;;2265023;61;20413;-62
2021/12/04 12:48:07;0.00;0.00;0.62;0.00;0.00;0.62;1.50;1.00;;;19.40;25.90;;;;;;2265870;61;20371;-62
2021/12/04 12:51:04;0.00;0.00;0.62;0.00;0.00;0.62;1.40;0.80;;;19.40;25.90;;;;;;2265386;61;20376;-61
2021/12/04 12:53:49;0.00;0.00;0.62;0.00;0.00;0.62;1.50;1.00;;;19.40;25.90;;;;;;2265595;61;20393;-62
2021/12/04 12:56:37;0.00;0.00;0.62;0.00;0.00;0.62;1.40;0.80;;;19.50;25.90;;;;;;2265122;61;20365;-63
2021/12/04 12:59:35;0.00;0.00;0.62;0.00;0.00;0.62;1.60;1.00;;;19.50;25.90;;;;;;2265087;61;20717;-62
2021/12/04 13:14:25;0.00;0.00;0.62;0.00;0.00;0.62;2.17;1.10;;;19.50;25.70;;;;;;2265050;61;20632;-62
2021/12/04 13:17:16;0.00;0.00;0.62;0.00;0.00;0.62;1.50;0.80;;;19.50;25.70;;;;;;2265800;61;20761;-61
2021/12/04 13:20:01;0.00;0.00;0.62;0.00;0.00;0.62;1.57;1.00;;;19.60;25.80;;;;;;2264971;61;20411;-62
2021/12/04 13:22:45;0.00;0.00;0.62;0.00;0.00;0.62;1.30;0.90;;;19.60;25.70;;;;;;2265207;61;20360;-63
2021/12/04 13:25:31;0.00;0.00;0.62;0.00;0.00;0.62;1.87;1.00;;;19.60;25.70;;;;;;2265308;61;20349;-62
2021/12/04 13:28:21;0.00;0.00;0.62;0.00;0.00;0.62;1.60;1.17;;;19.60;25.70;;;;;;2265318;61;20411;-62
2021/12/04 13:31:07;0.00;0.00;0.62;0.00;0.00;0.62;1.63;1.00;;;19.60;25.70;;;;;;2265695;61;20389;-64
2021/12/04 13:33:53;0.00;0.00;0.62;0.00;0.00;0.62;1.63;1.00;;;19.60;25.70;;;;;;2265198;61;20631;-62
2021/12/04 13:36:39;0.00;0.00;0.62;0.00;0.00;0.62;1.40;0.80;;;19.60;25.70;;;;;;2265136;61;20345;-62
2021/12/04 13:39:25;0.00;0.00;0.62;0.00;0.00;0.62;1.50;0.97;;;19.60;25.70;;;;;;2265647;61;20411;-63
2021/12/04 13:42:11;0.00;0.00;0.62;0.00;0.00;0.62;1.60;1.00;;;19.60;25.60;;;;;;2265192;61;20399;-61
2021/12/04 13:44:57;0.00;0.00;0.62;0.00;0.00;0.62;1.40;0.90;;;19.60;25.60;;;;;;2265031;61;20356;-61
2021/12/04 13:47:43;0.00;0.00;0.62;0.00;0.00;0.62;1.30;0.73;;;19.60;25.60;;;;;;2265405;61;20357;-61
2021/12/04 13:53:21;0.00;0.00;0.62;0.00;0.00;0.62;1.60;0.90;;;19.60;25.60;;;;;;2266318;61;20438;-62
2021/12/04 13:56:10;0.00;0.00;0.62;0.00;0.00;0.62;1.63;1.00;;;19.60;25.60;;;;;;2265786;61;20363;-60
2021/12/04 13:58:59;0.00;0.00;0.62;0.00;0.00;0.62;1.40;0.80;;;19.60;25.60;;;;;;2265493;61;20604;-62
2021/12/04 14:01:44;0.00;0.00;0.62;0.00;0.00;0.62;1.40;0.93;;;19.60;25.60;;;;;;2266346;61;20717;-63